Time;durP1;ratioP1;P1;durP2;ratioP2;P2;SDS_P1;SDS_P2;PMS_P1;PMS_P2;Temp;Humidity;BMP_temperature;BMP_pressure;BME280_temperature;BME280_humidity;BME280_pressure;Samples;Min_cycle;Max_cycle;Signal;HPM_P1;HPM_P2
2021/12/23 00:00:45;;;;;;;0.90;0.90;;;;;;;0.26;69.25;101156.75;5124411;28;20031;-82
2021/12/23 00:03:23;;;;;;;0.80;0.80;;;;;;;0.42;68.86;101157.94;5113348;28;20043;-82
2021/12/23 00:05:59;;;;;;;0.85;0.85;;;;;;;0.42;68.58;101146.75;5126179;28;20042;-82
2021/12/23 00:08:33;;;;;;;0.80;0.80;;;;;;;0.39;69.16;101134.66;5144253;28;20049;-82
2021/12/23 00:11:04;;;;;;;1.45;1.35;;;;;;;0.37;69.59;101143.22;5127344;28;20030;-82
2021/12/23 00:13:39;;;;;;;;;;;;;;;0.44;68.39;101147.69;5157221;28;20035;-83
2021/12/23 00:16:18;;;;;;;1.13;1.13;;;;;;;0.42;68.49;101150.19;5133576;28;20192;-82
2021/12/23 00:18:56;;;;;;;0.55;0.55;;;;;;;0.43;69.27;101143.34;5125745;28;20047;-82
2021/12/23 00:24:22;;;;;;;7.03;2.47;;;;;;;0.46;69.20;101125.31;5142057;28;20043;-83
2021/12/23 00:26:53;;;;;;;2.60;1.45;;;;;;;0.22;68.80;101121.38;5142487;28;20420;-82
2021/12/23 00:29:26;;;;;;;1.17;1.15;;;;;;;0.34;69.31;101119.91;5109050;28;20047;-83
2021/12/23 00:32:02;;;;;;;3.65;3.08;;;;;;;0.42;68.54;101110.63;5156038;28;20035;-83
2021/12/23 00:34:33;;;;;;;4.75;3.22;;;;;;;0.54;68.98;101103.13;5152096;28;20542;-82
2021/12/23 00:37:09;;;;;;;0.80;0.80;;;;;;;0.44;69.14;101094.31;5124902;28;20035;-82
2021/12/23 00:39:40;;;;;;;2.05;1.95;;;;;;;0.29;69.14;101088.84;5132106;28;20048;-83
2021/12/23 00:42:21;;;;;;;2.47;2.38;;;;;;;0.30;69.28;101094.03;5128079;28;20022;-83
2021/12/23 00:44:54;;;;;;;0.90;0.90;;;;;;;0.34;69.31;101094.97;5127305;28;20074;-82
2021/12/23 00:47:27;;;;;;;1.45;1.35;;;;;;;0.51;69.12;101102.19;5126668;28;20414;-82
2021/12/23 00:50:01;;;;;;;0.57;0.57;;;;;;;0.49;69.29;101098.72;5144998;28;20139;-83
2021/12/23 00:52:35;;;;;;;1.50;1.40;;;;;;;0.47;68.89;101098.66;5154925;28;20035;-82
2021/12/23 00:55:09;;;;;;;0.80;0.80;;;;;;;0.39;68.38;101082.16;5111033;28;20090;-83
2021/12/23 00:57:41;;;;;;;1.55;1.38;;;;;;;0.47;68.59;101070.25;5143370;28;20026;-83
2021/12/23 01:00:18;;;;;;;1.85;1.75;;;;;;;0.54;68.27;101066.97;5126809;28;20022;-82
2021/12/23 01:03:48;;;;;;;1.17;1.15;;;;;;;0.37;68.32;101063.19;5110137;28;20043;-82
2021/12/23 01:06:48;;;;;;;2.58;2.40;;;;;;;0.34;68.79;101057.97;5116047;28;20457;-81
2021/12/23 01:09:21;;;;;;;2.10;2.00;;;;;;;0.38;69.20;101060.63;5141636;28;20038;-81
2021/12/23 01:11:52;;;;;;;8.60;2.93;;;;;;;0.40;69.01;101068.41;5125362;28;20440;-82
2021/12/23 01:19:38;;;;;;;0.90;0.90;;;;;;;0.20;69.47;101032.75;5127215;28;20053;-82
2021/12/23 01:22:09;;;;;;;0.70;0.70;;;;;;;0.29;69.17;101043.22;5126579;28;20031;-82
2021/12/23 01:24:43;;;;;;;;;;;;;;;0.06;69.31;101035.03;5119375;28;20045;-81
2021/12/23 01:27:14;;;;;;;2.80;2.15;;;;;;;0.12;69.53;101024.84;5135633;28;20386;-82
2021/12/23 01:29:44;;;;;;;0.98;0.98;;;;;;;0.20;69.78;101027.59;5100524;28;20055;-82
2021/12/23 01:32:15;;;;;;;0.60;0.60;;;;;;;0.18;68.80;101025.78;5142148;28;20069;-81
2021/12/23 01:34:46;;;;;;;0.98;0.80;;;;;;;0.21;69.23;101031.88;5111399;28;20042;-81
2021/12/23 01:37:19;;;;;;;2.28;2.15;;;;;;;0.31;69.27;101027.81;5111576;28;20030;-81
2021/12/23 01:39:49;;;;;;;1.05;1.05;;;;;;;0.22;69.31;101027.59;5117617;28;20042;-81
2021/12/23 01:42:23;;;;;;;2.78;2.58;;;;;;;0.31;69.26;101041.56;5127890;28;20496;-81
2021/12/23 01:44:56;;;;;;;1.23;1.23;;;;;;;0.33;68.96;101031.28;5144307;28;20050;-81
2021/12/23 01:47:29;;;;;;;1.63;1.58;;;;;;;0.39;69.38;101025.34;5143135;28;20035;-81
2021/12/23 01:50:02;;;;;;;2.40;2.20;;;;;;;0.44;68.77;101016.00;5138538;28;20027;-81
2021/12/23 01:52:42;;;;;;;1.10;1.10;;;;;;;0.47;68.69;101010.88;5129677;28;20091;-81
2021/12/23 01:55:15;;;;;;;1.60;1.50;;;;;;;0.45;69.15;101020.34;5119758;28;20027;-81
2021/12/23 01:57:48;;;;;;;0.77;0.77;;;;;;;0.25;69.11;101028.53;5141642;28;20042;-81
2021/12/23 02:00:22;;;;;;;2.28;1.77;;;;;;;0.36;69.03;101023.59;5127815;28;20053;-81
2021/12/23 02:02:54;;;;;;;1.35;1.35;;;;;;;0.46;68.81;101011.72;5141333;28;20042;-81
2021/12/23 02:05:36;;;;;;;0.70;0.70;;;;;;;0.37;68.29;101006.41;5144097;28;20030;-83
2021/12/23 02:08:10;;;;;;;2.17;2.08;;;;;;;0.47;68.96;101003.13;5141258;28;20047;-82
2021/12/23 02:10:42;;;;;;;0.50;0.50;;;;;;;0.51;69.22;100992.03;5125604;28;20042;-82
2021/12/23 02:13:15;;;;;;;0.70;0.70;;;;;;;0.52;68.43;100973.13;5118003;28;20116;-82
2021/12/23 02:15:53;;;;;;;2.25;2.15;;;;;;;0.54;68.58;100963.69;5107751;28;20035;-83
2021/12/23 02:18:25;;;;;;;1.17;1.17;;;;;;;0.40;69.25;100949.66;5140770;28;20648;-82
2021/12/23 02:20:56;;;;;;;1.00;1.00;;;;;;;0.41;69.31;100951.41;5126759;28;20038;-82
2021/12/23 02:23:27;;;;;;;1.95;1.83;;;;;;;0.46;69.61;100944.59;5123618;28;20031;-83
2021/12/23 02:25:58;;;;;;;1.42;1.30;;;;;;;0.42;69.44;100959.16;5142057;28;20045;-82
2021/12/23 02:28:29;;;;;;;1.33;1.33;;;;;;;0.40;68.99;100970.31;5122452;28;20042;-82
2021/12/23 02:31:02;;;;;;;0.75;0.75;;;;;;;0.27;69.78;100984.69;5143143;28;20405;-82
2021/12/23 02:33:35;;;;;;;;;;;;;;;0.40;68.79;100990.97;5133280;28;20610;-83
2021/12/23 02:36:09;;;;;;;0.50;0.50;;;;;;;0.45;69.77;100984.19;5112982;28;19914;-83
2021/12/23 02:38:40;;;;;;;3.05;2.25;;;;;;;0.45;69.36;100981.59;5120802;28;20030;-82
2021/12/23 02:41:11;;;;;;;0.70;0.70;;;;;;;0.58;69.50;100988.72;5125069;28;20057;-82
2021/12/23 02:43:44;;;;;;;2.38;2.28;;;;;;;0.54;69.70;100989.50;5115361;28;20133;-83
2021/12/23 02:46:18;;;;;;;0.95;0.95;;;;;;;0.58;69.39;100974.97;5125809;28;20584;-83
2021/12/23 02:48:51;;;;;;;1.23;1.23;;;;;;;0.55;69.61;100975.75;5142935;28;20046;-82
2021/12/23 02:51:22;;;;;;;0.73;0.73;;;;;;;0.63;69.41;100974.16;5142959;28;20058;-83
2021/12/23 02:54:15;;;;;;;0.90;0.90;;;;;;;0.61;69.77;100965.56;5139317;28;20038;-82
2021/12/23 02:56:46;;;;;;;0.80;0.80;;;;;;;0.71;69.49;100955.34;5141250;28;20035;-82
2021/12/23 02:59:16;;;;;;;2.42;2.22;;;;;;;0.63;69.70;100948.34;5142640;28;20170;-82
2021/12/23 03:01:59;;;;;;;;;;;;;;;;;;;;;
2021/12/23 03:04:31;;;;;;;1.93;1.83;;;;;;;0.69;69.10;100952.75;5131476;28;20109;-82
2021/12/23 03:07:02;;;;;;;1.85;1.60;;;;;;;0.80;69.24;100955.50;5140834;28;20398;-83
2021/12/23 03:09:36;;;;;;;1.17;1.17;;;;;;;0.69;69.69;100946.72;5122370;28;20066;-83
2021/12/23 03:12:07;;;;;;;0.95;0.95;;;;;;;0.80;69.69;100945.19;5140473;28;20049;-82
2021/12/23 03:14:38;;;;;;;5.68;2.38;;;;;;;0.78;69.29;100942.59;5132117;28;20038;-82
2021/12/23 03:17:16;;;;;;;;;;;;;;;0.81;69.70;100935.72;5140980;28;20030;-82
2021/12/23 03:19:47;;;;;;;0.95;0.95;;;;;;;0.86;69.86;100923.75;5121609;28;19937;-82
2021/12/23 03:22:23;;;;;;;1.23;1.23;;;;;;;0.86;69.37;100927.22;5140799;28;20027;-83
2021/12/23 03:24:53;;;;;;;1.38;1.38;;;;;;;0.85;69.21;100927.19;5115409;28;20497;-83
2021/12/23 03:27:30;;;;;;;;;;;;;;;0.80;69.44;100924.50;5154018;28;20019;-83
2021/12/23 03:30:01;;;;;;;2.65;1.92;;;;;;;0.91;69.57;100930.75;5107455;28;20279;-82
2021/12/23 03:32:32;;;;;;;1.38;1.38;;;;;;;0.88;69.58;100930.69;5137075;28;20049;-82
2021/12/23 03:35:03;;;;;;;0.80;0.80;;;;;;;0.94;69.55;100938.56;5122862;28;20015;-83
2021/12/23 03:37:35;;;;;;;1.50;1.40;;;;;;;0.86;69.62;100940.13;5099284;28;20062;-82
2021/12/23 03:40:07;;;;;;;1.20;1.20;;;;;;;0.81;69.48;100959.84;5114168;28;20026;-82
2021/12/23 03:42:39;;;;;;;2.95;2.78;;;;;;;0.90;69.37;100951.38;5143928;28;20317;-82
2021/12/23 03:45:10;;;;;;;0.73;0.73;;;;;;;0.92;69.93;100939.34;5149932;28;20035;-79
2021/12/23 03:47:40;;;;;;;1.15;1.15;;;;;;;0.97;69.60;100932.56;5123807;28;20044;-82
2021/12/23 03:50:13;;;;;;;1.00;1.00;;;;;;;0.92;69.89;100935.06;5101339;28;20463;-82
2021/12/23 03:52:57;;;;;;;1.70;1.60;;;;;;;1.00;69.42;100927.41;5118381;28;20062;-82
2021/12/23 03:55:31;;;;;;;0.63;0.63;;;;;;;0.99;69.59;100917.06;5158437;28;20836;-82
2021/12/23 03:58:05;;;;;;;1.75;1.65;;;;;;;1.00;69.18;100911.06;5124298;28;20053;-81
2021/12/23 04:00:42;;;;;;;2.60;2.50;;;;;;;1.08;69.45;100905.13;5146611;28;20011;-80
2021/12/23 04:03:16;;;;;;;1.33;1.27;;;;;;;1.06;68.77;100885.28;5122162;28;20447;-81
2021/12/23 04:05:47;;;;;;;2.20;2.03;;;;;;;1.06;69.53;100870.69;5126007;28;20031;-82
2021/12/23 04:08:20;;;;;;;0.60;0.60;;;;;;;1.08;69.36;100889.63;5115470;28;20106;-82
2021/12/23 04:10:58;;;;;;;2.00;1.80;;;;;;;1.08;69.46;100905.13;5126131;28;20064;-81
2021/12/23 04:13:43;;;;;;;1.25;1.25;;;;;;;1.02;69.76;100902.47;5138481;28;20038;-80
2021/12/23 04:16:22;;;;;;;0.82;0.82;;;;;;;1.08;69.37;100888.78;5140393;28;20504;-82
2021/12/23 04:18:54;;;;;;;1.98;1.88;;;;;;;1.00;70.00;100891.22;5121824;28;20051;-82
2021/12/23 04:21:27;;;;;;;2.05;1.95;;;;;;;1.08;69.24;100889.63;5140736;28;20363;-82
2021/12/23 04:23:58;;;;;;;2.97;2.78;;;;;;;1.10;69.65;100887.09;5105614;28;20476;-82
2021/12/23 04:26:29;;;;;;;1.90;1.80;;;;;;;1.13;69.33;100871.63;5123562;28;20046;-81
2021/12/23 04:28:59;;;;;;;1.70;1.60;;;;;;;1.09;70.11;100856.94;5138318;28;20457;-82
2021/12/23 04:31:32;;;;;;;0.80;0.80;;;;;;;1.05;69.47;100852.53;5142670;28;20490;-82
2021/12/23 04:34:08;;;;;;;2.08;1.98;;;;;;;1.10;69.38;100851.75;5123828;28;20047;-81
2021/12/23 04:36:41;;;;;;;3.30;3.08;;;;;;;1.01;69.47;100855.94;5138217;28;20020;-83
2021/12/23 04:39:20;;;;;;;1.33;1.33;;;;;;;1.00;70.00;100851.63;5123439;28;20111;-83
2021/12/23 04:41:51;;;;;;;1.30;1.30;;;;;;;1.03;69.57;100859.44;5123877;28;20368;-82
2021/12/23 04:44:27;;;;;;;3.90;3.00;;;;;;;1.09;69.66;100849.19;5122518;28;20377;-83
2021/12/23 04:47:00;;;;;;;4.53;4.13;;;;;;;1.03;69.66;100838.75;5148506;28;20097;-83
2021/12/23 04:49:33;;;;;;;1.52;1.45;;;;;;;1.01;69.72;100845.63;5108016;28;20516;-82
2021/12/23 04:52:04;;;;;;;1.33;1.33;;;;;;;0.97;69.69;100847.28;5124761;28;20114;-83
2021/12/23 04:54:50;;;;;;;;;;;;;;;;;;;;;
2021/12/23 04:57:23;;;;;;;1.17;1.08;;;;;;;0.98;69.68;100818.03;5144028;28;20034;-83
2021/12/23 05:00:22;;;;;;;0.88;0.88;;;;;;;0.99;69.57;100816.28;5128847;28;20046;-82
2021/12/23 05:03:05;;;;;;;1.35;1.35;;;;;;;0.97;69.60;100829.19;5131666;28;20041;-83
2021/12/23 05:05:45;;;;;;;;;;;;;;;;;;;;;
2021/12/23 05:08:29;;;;;;;3.20;2.88;;;;;;;1.06;69.58;100838.78;5141352;28;20721;-81
2021/12/23 05:10:59;;;;;;;1.40;1.40;;;;;;;1.03;69.71;100838.75;5110428;28;20581;-81
2021/12/23 05:13:33;;;;;;;0.73;0.73;;;;;;;0.93;69.74;100822.22;5127080;28;20831;-81
2021/12/23 05:16:04;;;;;;;2.22;2.13;;;;;;;0.93;70.07;100812.78;5128939;28;20030;-81
2021/12/23 05:18:35;;;;;;;1.70;1.27;;;;;;;0.94;69.62;100824.88;5126419;28;20641;-81
2021/12/23 05:21:06;;;;;;;1.23;1.23;;;;;;;0.94;69.96;100824.88;5144546;28;20106;-81
2021/12/23 05:23:46;;;;;;;1.10;1.10;;;;;;;0.93;69.79;100812.78;5125342;28;20038;-81
2021/12/23 05:26:19;;;;;;;2.53;2.38;;;;;;;0.99;70.18;100811.13;5127212;28;20112;-81
2021/12/23 05:29:01;;;;;;;1.20;1.20;;;;;;;0.98;69.97;100824.88;5133029;28;20043;-82
2021/12/23 05:31:31;;;;;;;1.70;1.65;;;;;;;1.05;69.38;100818.94;5143461;28;20504;-81
2021/12/23 05:34:08;;;;;;;;;;;;;;;1.01;69.84;100820.63;5126122;28;20054;-82
2021/12/23 05:36:38;;;;;;;3.15;2.75;;;;;;;1.02;69.49;100803.44;5112017;28;19914;-81
2021/12/23 05:39:11;;;;;;;2.65;2.45;;;;;;;0.98;69.69;100786.13;5122098;28;20042;-81
2021/12/23 05:41:45;;;;;;;2.73;2.53;;;;;;;0.88;69.79;100769.66;5152286;28;20042;-80
2021/12/23 05:44:35;;;;;;;;;;;;;;;;;;;;;
2021/12/23 05:47:15;;;;;;;4.85;2.58;;;;;;;0.87;70.28;100768.75;5145722;28;20086;-83
2021/12/23 05:49:51;;;;;;;0.98;0.98;;;;;;;0.89;69.95;100768.81;5093842;28;20458;-80
2021/12/23 05:52:21;;;;;;;0.90;0.90;;;;;;;0.98;69.81;100778.38;5142503;28;20038;-80
2021/12/23 05:55:02;;;;;;;1.83;1.73;;;;;;;1.02;69.65;100772.41;5114877;28;20045;-80
2021/12/23 05:57:35;;;;;;;0.47;0.47;;;;;;;0.93;69.73;100755.94;5120009;28;20030;-80
2021/12/23 06:00:14;;;;;;;2.03;1.92;;;;;;;0.89;69.48;100751.56;5129011;28;20030;-81
2021/12/23 06:02:50;;;;;;;1.88;1.77;;;;;;;0.98;69.63;100762.88;5130824;28;20043;-80
2021/12/23 06:05:21;;;;;;;0.90;0.90;;;;;;;0.98;69.26;100760.28;5110426;28;20022;-81
2021/12/23 06:07:55;;;;;;;0.85;0.85;;;;;;;0.99;70.00;100752.59;5125852;28;20041;-81
2021/12/23 06:10:26;;;;;;;1.20;1.20;;;;;;;1.04;69.37;100747.44;5123781;28;20114;-81
2021/12/23 06:13:00;;;;;;;2.28;1.77;;;;;;;0.93;70.08;100735.28;5109699;28;20046;-82
2021/12/23 06:15:32;;;;;;;1.85;1.77;;;;;;;0.93;70.42;100747.31;5114415;28;20030;-83
2021/12/23 06:18:43;;;;;;;1.23;1.23;;;;;;;1.02;69.68;100728.50;5102256;28;20121;-85
2021/12/23 06:21:16;;;;;;;0.93;0.93;;;;;;;0.93;69.90;100730.13;5122273;28;20566;-82
2021/12/23 06:23:50;;;;;;;1.38;1.38;;;;;;;0.96;70.30;100726.69;5087221;28;20078;-82
2021/12/23 06:26:26;;;;;;;1.45;1.45;;;;;;;1.03;70.26;100732.81;5116350;28;20030;-81
2021/12/23 06:29:17;;;;;;;2.28;2.08;;;;;;;0.99;69.74;100729.31;5127081;28;20046;-79
2021/12/23 06:31:50;;;;;;;2.22;2.05;;;;;;;1.00;69.72;100732.75;5125151;28;20093;-80
2021/12/23 06:34:21;;;;;;;;;;;;;;;0.98;69.60;100737.03;5140606;28;20045;-82
2021/12/23 06:36:52;;;;;;;0.95;0.93;;;;;;;0.93;69.84;100722.34;5126815;28;19918;-81
2021/12/23 06:39:26;;;;;;;1.05;1.05;;;;;;;0.95;70.06;100714.63;5120192;28;20046;-79
2021/12/23 06:41:56;;;;;;;0.85;0.85;;;;;;;0.89;70.21;100719.72;5139162;28;20035;-79
2021/12/23 06:44:27;;;;;;;1.50;1.45;;;;;;;0.92;70.56;100728.38;5107673;28;20583;-80
2021/12/23 06:46:58;;;;;;;1.35;1.35;;;;;;;0.83;70.41;100732.56;5108924;28;20046;-80
2021/12/23 06:49:31;;;;;;;1.50;1.40;;;;;;;0.84;70.68;100737.75;5108324;28;20031;-80
2021/12/23 06:52:02;;;;;;;2.00;1.90;;;;;;;0.89;70.55;100732.63;5157602;28;20113;-81
2021/12/23 06:54:33;;;;;;;1.77;1.52;;;;;;;0.91;70.48;100738.69;5117518;28;20165;-81
2021/12/23 06:57:06;;;;;;;0.90;0.90;;;;;;;1.01;69.78;100725.03;5125668;28;20097;-81
2021/12/23 06:59:36;;;;;;;1.73;1.63;;;;;;;0.97;70.02;100724.97;5137815;28;20069;-80
2021/12/23 07:02:09;;;;;;;2.28;2.15;;;;;;;1.01;70.23;100731.91;5125047;28;20496;-80
2021/12/23 07:04:42;;;;;;;2.15;2.05;;;;;;;0.98;70.54;100737.91;5140902;28;20182;-81
2021/12/23 07:07:29;;;;;;;2.03;1.88;;;;;;;1.02;70.31;100733.66;5124533;28;20038;-81
2021/12/23 07:10:05;;;;;;;1.27;1.27;;;;;;;1.03;70.27;100735.41;5144084;28;20196;-81
2021/12/23 07:12:47;;;;;;;1.05;1.05;;;;;;;1.06;70.30;100733.72;5152056;28;20065;-81
2021/12/23 07:15:18;;;;;;;0.93;0.93;;;;;;;0.97;70.46;100743.94;5109197;28;20030;-80
2021/12/23 07:17:48;;;;;;;2.00;1.90;;;;;;;1.02;70.25;100744.00;5124066;28;20070;-81
2021/12/23 07:20:19;;;;;;;1.35;1.35;;;;;;;0.93;70.66;100730.13;5125668;28;20031;-80
2021/12/23 07:22:50;;;;;;;3.13;3.00;;;;;;;0.94;70.57;100721.50;5122182;28;20043;-80
2021/12/23 07:25:21;;;;;;;1.25;1.25;;;;;;;0.91;70.73;100711.13;5124617;28;20034;-83
2021/12/23 07:27:52;;;;;;;1.15;1.15;;;;;;;0.91;70.78;100724.03;5146794;28;20101;-81
2021/12/23 07:30:23;;;;;;;2.25;2.08;;;;;;;0.94;70.88;100718.94;5109324;28;20053;-80
2021/12/23 07:32:54;;;;;;;2.97;2.63;;;;;;;0.99;70.32;100713.81;5122382;28;20497;-80
2021/12/23 07:35:24;;;;;;;3.88;3.25;;;;;;;0.99;70.77;100713.81;5113680;28;20046;-81
2021/12/23 07:38:04;;;;;;;0.57;0.57;;;;;;;1.00;70.40;100710.34;5125623;28;20413;-81
2021/12/23 07:40:37;;;;;;;1.48;1.38;;;;;;;1.07;70.79;100711.31;5140642;28;20034;-81
2021/12/23 07:43:20;;;;;;;2.38;2.28;;;;;;;1.14;70.70;100705.38;5124724;28;20117;-82
2021/12/23 07:45:53;;;;;;;1.00;1.00;;;;;;;1.12;70.56;100709.63;5126248;28;20073;-82
2021/12/23 07:48:35;;;;;;;1.33;1.23;;;;;;;1.13;70.58;100713.97;5109657;28;20042;-81
2021/12/23 07:51:11;;;;;;;1.50;1.50;;;;;;;1.14;70.49;100713.13;5109065;28;20042;-80
2021/12/23 07:53:42;;;;;;;2.92;1.60;;;;;;;1.18;70.26;100708.84;5122655;28;20080;-80
2021/12/23 07:56:13;;;;;;;1.13;1.13;;;;;;;1.14;70.67;100704.50;5115699;28;20094;-81
2021/12/23 07:58:46;;;;;;;;;;;;;;;1.18;70.61;100706.25;5124263;28;20049;-81
2021/12/23 08:01:18;;;;;;;1.75;1.65;;;;;;;1.23;70.18;100704.63;5127043;28;20017;-81
2021/12/23 08:03:49;;;;;;;0.70;0.70;;;;;;;1.25;70.18;100708.06;5106944;28;20716;-80
2021/12/23 08:06:20;;;;;;;4.82;3.75;;;;;;;1.20;70.05;100709.75;5108684;28;20089;-81
2021/12/23 08:08:50;;;;;;;2.42;2.30;;;;;;;1.13;70.81;100690.69;5130126;28;20050;-81
2021/12/23 08:11:21;;;;;;;1.85;1.75;;;;;;;1.21;70.33;100694.25;5124467;28;20518;-80
2021/12/23 08:13:54;;;;;;;0.93;0.93;;;;;;;1.24;70.09;100691.69;5122605;28;20043;-81
2021/12/23 08:16:28;;;;;;;2.10;2.03;;;;;;;1.21;70.77;100694.25;5120110;28;20027;-82
2021/12/23 08:18:59;;;;;;;1.80;1.75;;;;;;;1.24;70.63;100694.28;5111524;28;20054;-80
2021/12/23 08:21:32;;;;;;;1.13;1.13;;;;;;;1.24;70.47;100696.00;5120013;28;20022;-82
2021/12/23 08:24:02;;;;;;;6.70;2.05;;;;;;;1.21;70.62;100701.13;5122118;28;20023;-82
2021/12/23 08:26:40;;;;;;;2.80;2.65;;;;;;;1.25;70.95;100696.03;5151342;28;20332;-80
2021/12/23 08:29:17;;;;;;;1.95;1.85;;;;;;;1.23;71.11;100700.28;5107334;28;20043;-80
2021/12/23 08:31:53;;;;;;;3.30;3.05;;;;;;;1.21;70.90;100689.06;5110906;28;20512;-81
2021/12/23 08:34:25;;;;;;;3.38;2.35;;;;;;;1.22;71.34;100690.81;5126528;28;20054;-80
2021/12/23 08:36:56;;;;;;;0.93;0.93;;;;;;;1.34;70.98;100689.22;5144928;28;20030;-81
2021/12/23 08:39:26;;;;;;;1.73;1.63;;;;;;;1.35;71.31;100685.78;5117570;28;20049;-80
2021/12/23 08:41:57;;;;;;;2.88;2.63;;;;;;;1.39;70.60;100678.06;5109623;28;20030;-80
2021/12/23 08:44:31;;;;;;;;;;;;;;;1.35;70.80;100676.28;5114517;28;20047;-80
2021/12/23 08:47:04;;;;;;;2.80;2.60;;;;;;;1.39;71.10;100672.00;5111963;28;19913;-82
2021/12/23 08:49:35;;;;;;;2.38;2.28;;;;;;;1.39;71.36;100672.00;5144007;28;20062;-80
2021/12/23 08:52:06;;;;;;;1.67;1.58;;;;;;;1.38;71.54;100673.75;5126284;28;20046;-80
2021/12/23 08:54:44;;;;;;;2.60;2.25;;;;;;;1.45;71.46;100674.66;5120391;28;20125;-80
2021/12/23 08:57:16;;;;;;;2.42;1.55;;;;;;;1.51;70.80;100671.25;5110405;28;20686;-80
2021/12/23 08:59:46;;;;;;;5.45;3.75;;;;;;;1.55;70.67;100673.03;5125453;28;20078;-81
2021/12/23 09:02:17;;;;;;;1.17;1.17;;;;;;;1.56;70.82;100669.59;5139515;28;20093;-81
2021/12/23 09:04:47;;;;;;;1.13;1.13;;;;;;;1.54;70.83;100672.16;5116191;28;20054;-81
2021/12/23 09:07:18;;;;;;;1.85;1.75;;;;;;;1.54;71.02;100666.97;5123820;28;20035;-80
2021/12/23 09:09:51;;;;;;;2.60;2.28;;;;;;;1.52;71.18;100658.38;5133992;28;20035;-81
2021/12/23 09:12:22;;;;;;;1.10;1.10;;;;;;;1.53;71.34;100670.41;5140504;28;20058;-82
2021/12/23 09:14:54;;;;;;;2.03;1.90;;;;;;;1.53;70.41;100660.06;5124344;28;20120;-81
2021/12/23 09:17:29;;;;;;;1.35;1.35;;;;;;;1.78;70.21;100662.88;5125011;28;20054;-82
2021/12/23 09:20:04;;;;;;;3.30;3.08;;;;;;;1.47;70.83;100665.19;5104238;28;20043;-82
2021/12/23 09:22:37;;;;;;;1.20;1.20;;;;;;;1.57;71.13;100667.03;5115809;28;20033;-81
2021/12/23 09:25:26;;;;;;;1.02;1.02;;;;;;;1.52;71.57;100663.53;5132323;28;20027;-81
2021/12/23 09:28:26;;;;;;;0.95;0.95;;;;;;;1.56;71.01;100662.69;5140325;28;20042;-80
2021/12/23 09:34:06;;;;;;;1.25;1.25;;;;;;;1.78;70.65;100662.03;5110610;28;20069;-82
2021/12/23 09:36:39;;;;;;;2.67;2.47;;;;;;;1.66;70.93;100650.72;5122585;28;20027;-81
2021/12/23 09:39:12;;;;;;;0.93;0.93;;;;;;;1.72;70.89;100642.13;5108680;28;20031;-81
2021/12/23 09:41:45;;;;;;;2.15;2.08;;;;;;;1.72;70.89;100648.19;5125029;28;20058;-82
2021/12/23 09:44:16;;;;;;;0.50;0.50;;;;;;;1.80;70.88;100643.06;5108160;28;20042;-81
2021/12/23 09:46:48;;;;;;;1.15;1.15;;;;;;;1.80;70.73;100643.06;5109052;28;20058;-81
2021/12/23 09:49:19;;;;;;;2.97;2.78;;;;;;;1.82;71.02;100641.38;5131047;28;20049;-82
2021/12/23 09:51:50;;;;;;;1.25;1.13;;;;;;;1.80;71.13;100643.06;5124429;28;20529;-81
2021/12/23 09:54:28;;;;;;;0.80;0.80;;;;;;;1.83;71.23;100644.81;5122686;28;20035;-81
2021/12/23 09:56:59;;;;;;;1.08;1.08;;;;;;;1.79;71.03;100646.50;5110107;28;20074;-82
2021/12/23 09:59:30;;;;;;;3.88;2.92;;;;;;;1.86;71.50;100642.25;5128182;28;20030;-82
2021/12/23 10:02:03;;;;;;;2.45;2.25;;;;;;;1.95;71.43;100637.16;5128530;28;20080;-82
2021/12/23 10:04:34;;;;;;;1.92;1.83;;;;;;;1.93;71.75;100633.66;5123664;28;20129;-83
2021/12/23 10:07:05;;;;;;;0.75;0.75;;;;;;;1.88;71.60;100630.19;5125014;28;20494;-81
2021/12/23 10:31:50;;;;;;;1.42;1.42;;;;;;;2.20;71.30;100599.31;5123762;28;20094;-81
2021/12/23 10:40:08;;;;;;;0.95;0.95;;;;;;;2.17;72.24;100568.25;5151366;28;20445;-80
2021/12/23 10:42:49;;;;;;;0.70;0.70;;;;;;;2.21;71.87;100556.19;5136490;28;20022;-80
2021/12/23 10:45:19;;;;;;;4.57;4.28;;;;;;;2.26;71.87;100554.47;5123410;28;20453;-80
2021/12/23 10:47:59;;;;;;;1.27;1.27;;;;;;;2.27;71.60;100551.03;5140117;28;20063;-81
2021/12/23 10:53:23;;;;;;;8.77;2.05;;;;;;;2.34;72.04;100546.75;5121901;28;20163;-82
2021/12/23 10:59:17;;;;;;;1.75;1.65;;;;;;;2.50;71.13;100527.81;5139600;28;20058;-80
2021/12/23 11:02:00;;;;;;;;;;;;;;;2.56;71.80;100527.00;5124680;28;20022;-81
2021/12/23 11:04:37;;;;;;;1.20;1.20;;;;;;;2.60;71.47;100517.50;5137896;28;19979;-81
2021/12/23 11:07:24;;;;;;;1.02;1.02;;;;;;;2.61;70.13;100529.56;5109956;28;20034;-79
2021/12/23 11:10:13;;;;;;;1.27;1.27;;;;;;;2.59;71.41;100515.75;5121316;28;20035;-81
2021/12/23 11:36:20;;;;;;;1.75;1.67;;;;;;;2.72;70.48;100491.59;5140835;28;20401;-80
2021/12/23 11:44:03;;;;;;;2.72;2.42;;;;;;;2.70;71.43;100467.41;5122745;28;20101;-83
2021/12/23 11:46:47;;;;;;;2.22;1.80;;;;;;;2.80;71.40;100469.16;5108181;28;20027;-82
2021/12/23 11:49:28;;;;;;;5.32;4.13;;;;;;;2.82;71.30;100466.56;5117722;28;20097;-82
2021/12/23 11:52:25;;;;;;;2.25;2.15;;;;;;;2.87;68.71;100463.97;5112668;28;20027;-83
2021/12/23 11:55:22;;;;;;;2.60;2.40;;;;;;;2.87;69.42;100459.66;5093608;28;20053;-81
2021/12/23 11:58:02;;;;;;;1.65;1.60;;;;;;;2.82;71.14;100451.88;5092241;28;20070;-84
2021/12/23 12:00:44;;;;;;;3.90;2.83;;;;;;;2.83;71.34;100452.75;5119987;28;20031;-82
2021/12/23 12:03:23;;;;;;;1.60;1.50;;;;;;;2.87;69.66;100448.41;5123333;28;20067;-81
2021/12/23 12:06:12;;;;;;;2.40;2.20;;;;;;;3.01;71.19;100446.72;5126437;28;20526;-82
2021/12/23 12:08:43;;;;;;;0.95;0.95;;;;;;;3.06;69.69;100439.78;5127065;28;20126;-83
2021/12/23 12:11:20;;;;;;;2.00;1.90;;;;;;;2.99;70.69;100430.28;5113575;28;20988;-82
2021/12/23 12:13:52;;;;;;;1.88;1.77;;;;;;;2.98;70.37;100425.97;5143365;28;20038;-83
2021/12/23 12:16:35;;;;;;;3.85;3.30;;;;;;;2.96;71.03;100415.59;5113940;28;20137;-82
2021/12/23 12:19:11;;;;;;;3.35;3.15;;;;;;;2.98;70.43;100410.41;5076803;28;20826;-82
2021/12/23 12:21:43;;;;;;;1.75;1.65;;;;;;;2.96;69.44;100401.75;5141239;28;20049;-82
2021/12/23 12:24:28;;;;;;;3.17;2.80;;;;;;;3.08;71.14;100396.59;5126220;28;20784;-82
2021/12/23 12:27:15;;;;;;;1.48;1.38;;;;;;;3.05;70.63;100399.16;5121171;28;20093;-82
2021/12/23 12:30:10;;;;;;;3.13;2.85;;;;;;;3.14;71.21;100391.38;5098212;28;20046;-83
2021/12/23 12:32:40;;;;;;;2.60;2.50;;;;;;;3.21;70.98;100386.19;5123330;28;20502;-82
2021/12/23 12:35:14;;;;;;;3.00;2.80;;;;;;;3.17;70.43;100379.28;5107201;28;20055;-82
2021/12/23 12:37:46;;;;;;;3.65;3.42;;;;;;;3.15;70.49;100387.03;5124090;28;20699;-82
2021/12/23 12:40:19;;;;;;;2.53;2.35;;;;;;;3.19;71.33;100387.91;5128579;28;20045;-84
2021/12/23 12:42:55;;;;;;;1.65;1.55;;;;;;;3.17;71.06;100387.06;5112113;28;20054;-84
2021/12/23 12:45:26;;;;;;;1.92;1.83;;;;;;;3.26;71.64;100389.66;5112054;28;20043;-82
2021/12/23 12:48:00;;;;;;;5.78;3.72;;;;;;;3.31;70.47;100380.09;5110858;28;20737;-82
2021/12/23 12:50:32;;;;;;;1.88;1.77;;;;;;;3.33;70.85;100374.91;5143640;28;20030;-82
2021/12/23 12:53:11;;;;;;;3.85;3.55;;;;;;;3.34;70.83;100368.84;5126552;28;20283;-82
2021/12/23 12:56:23;;;;;;;;;;;;;;;;;;;;;
2021/12/23 12:59:23;;;;;;;8.23;2.15;;;;;;;3.35;70.47;100360.22;5143211;28;20485;-82
2021/12/23 13:01:56;;;;;;;1.27;1.25;;;;;;;3.38;71.68;100355.88;5158056;28;20026;-82
2021/12/23 13:04:34;;;;;;;2.28;2.17;;;;;;;3.43;71.58;100346.34;5110873;28;20580;-83
2021/12/23 13:07:16;;;;;;;2.08;1.98;;;;;;;3.45;70.57;100334.22;5124429;28;20117;-83
2021/12/23 13:09:53;;;;;;;1.65;1.63;;;;;;;3.55;71.15;100335.09;5117546;28;20046;-83
2021/12/23 13:12:54;;;;;;;1.90;1.80;;;;;;;3.52;70.63;100329.00;5126843;28;20040;-83
2021/12/23 13:15:57;;;;;;;2.15;2.00;;;;;;;3.53;71.28;100317.78;5113236;28;20038;-82
2021/12/23 13:19:18;;;;;;;;;;;;;;;;;;;;;
2021/12/23 13:21:57;;;;;;;1.50;1.50;;;;;;;3.61;71.18;100313.41;5147485;28;20217;-83
2021/12/23 13:24:37;;;;;;;0.80;0.80;;;;;;;3.72;70.59;100315.97;5113154;28;20046;-82
2021/12/23 13:27:31;;;;;;;;;;;;;;;;;;;;;
2021/12/23 13:30:27;;;;;;;2.30;2.20;;;;;;;3.73;70.54;100302.09;5143162;28;20054;-83
2021/12/23 13:33:10;;;;;;;;;;;;;;;;;;;;;
2021/12/23 13:35:49;;;;;;;5.82;2.45;;;;;;;3.75;72.23;100306.44;5127601;28;20640;-83
2021/12/23 13:38:45;;;;;;;1.27;1.20;;;;;;;3.72;71.81;100301.25;5116498;28;20070;-83
2021/12/23 13:41:39;;;;;;;;;;;;;;;;;;;;;